»·PEaware :: CFEGU KSNA-KPSP

CFEGU :: KSNA-KPSP

FLIGHT INFORMATION

Flight Status: Arrived
Operator: Unknown
More flights by this operator :: More flights under this callsign
Pilot: Vincent M. (370)
Aircraft: CESSNA 172 SKYHAWK
(C172)
More flights by this aircraft type
Origin: KSNA John Wayne-Orange Co
United States
Destination: KPSP Palm Springs Intl
United States
More flights between these airports :: More routes between these airports
Route: +
File this flight plan on PilotEdge
Remarks:
Altitude:
(Current/Filed)
0ft
Speed:
(Current/Filed)
0kts
Departed: 27-Nov-19 06:09 PM
Arrived: 27-Nov-19 06:59 PM
Distance/Time
Traveled:
69nm/0:50
Distance/Time
To Go:
Arrived

Flight Plot

Page will automatically refresh every two minutes.


Map Options




Map Legend


Flown Route
Filed Route
Departure Airport
Arrival Airport
Navaid (VOR, NDB)
Fix

Horizontal Profiles

Position Reports

Time Latitude Longitude Heading Altitude Ground
Speed
27-Nov-19 17:57 33.675851 -117.871009 218 60ft 0kts
27-Nov-19 17:58 33.675851 -117.871009 218 60ft 0kts
27-Nov-19 17:59 33.675851 -117.871009 218 60ft 0kts
27-Nov-19 18:00 33.675851 -117.871009 218 60ft 0kts
27-Nov-19 18:01 33.675851 -117.871009 218 60ft 0kts
27-Nov-19 18:02 33.675851 -117.871009 218 60ft 0kts
27-Nov-19 18:03 33.675851 -117.871009 218 60ft 0kts
27-Nov-19 18:04 33.675851 -117.871009 218 60ft 0kts
27-Nov-19 18:05 33.676699 -117.869706 24 60ft 21kts
27-Nov-19 18:06 33.681150 -117.867036 43 60ft 11kts
27-Nov-19 18:07 33.681124 -117.866226 116 60ft 11kts
27-Nov-19 18:08 33.668092 -117.874487 208 617ft 74kts
27-Nov-19 18:09 33.650706 -117.878046 144 1644ft 66kts
27-Nov-19 18:10 33.650450 -117.855172 77 2587ft 81kts
27-Nov-19 18:11 33.669139 -117.829243 43 3215ft 117kts
27-Nov-19 18:12 33.691731 -117.798429 55 3421ft 148kts
27-Nov-19 18:13 33.718520 -117.765690 31 3528ft 136kts
27-Nov-19 18:14 33.754791 -117.750492 6 3523ft 139kts
27-Nov-19 18:15 33.793265 -117.744754 13 3531ft 141kts
27-Nov-19 18:16 33.829890 -117.728270 28 3531ft 141kts
27-Nov-19 18:17 33.861636 -117.702954 61 3533ft 132kts
27-Nov-19 18:18 33.875025 -117.665438 90 3534ft 121kts
27-Nov-19 18:19 33.877994 -117.625898 104 3527ft 115kts
27-Nov-19 18:20 33.876967 -117.587343 103 3532ft 115kts
27-Nov-19 18:21 33.875893 -117.548890 103 3536ft 115kts
27-Nov-19 18:22 33.883447 -117.511111 67 3533ft 125kts
27-Nov-19 18:23 33.901026 -117.476693 78 3529ft 115kts
27-Nov-19 18:24 33.913915 -117.441589 75 3532ft 115kts
27-Nov-19 18:25 33.930115 -117.407856 65 3531ft 118kts
27-Nov-19 18:26 33.949164 -117.375308 64 3508ft 119kts
27-Nov-19 18:27 33.968993 -117.344301 41 3510ft 127kts
27-Nov-19 18:28 34.000343 -117.325802 57 3504ft 115kts
27-Nov-19 18:30 34.015736 -117.294692 74 3506ft 106kts
27-Nov-19 18:31 34.029173 -117.262800 73 3504ft 106kts
27-Nov-19 18:32 34.042038 -117.230972 93 3498ft 99kts
27-Nov-19 18:33 34.028239 -117.205417 117 3503ft 93kts
27-Nov-19 18:34 34.017312 -117.176966 123 3504ft 93kts
27-Nov-19 18:35 34.003726 -117.150356 123 3505ft 92kts
27-Nov-19 18:36 33.990218 -117.123909 124 3504ft 92kts
27-Nov-19 18:37 33.977667 -117.096536 119 3504ft 93kts
27-Nov-19 18:38 33.965428 -117.069082 121 3506ft 92kts
27-Nov-19 18:39 33.952454 -117.042105 121 3502ft 92kts
27-Nov-19 18:40 33.942914 -117.014457 116 3492ft 95kts
27-Nov-19 18:41 33.935661 -116.982988 99 3498ft 105kts
27-Nov-19 18:42 33.935916 -116.946671 101 3489ft 110kts
27-Nov-19 18:43 33.935508 -116.909655 99 3503ft 110kts
27-Nov-19 18:44 33.935938 -116.871662 98 3469ft 113kts
27-Nov-19 18:45 33.938089 -116.833434 94 3453ft 121kts
27-Nov-19 18:46 33.934042 -116.789678 99 3498ft 133kts
27-Nov-19 18:47 33.934344 -116.748429 101 3496ft 112kts
27-Nov-19 18:48 33.928569 -116.713229 97 3490ft 107kts
27-Nov-19 18:49 33.921215 -116.675738 93 3497ft 121kts
27-Nov-19 18:49 33.917733 -116.643883 89 3064ft 113kts
27-Nov-19 18:51 33.913102 -116.597268 95 2234ft 132kts
27-Nov-19 18:52 33.903642 -116.555506 110 1658ft 124kts
27-Nov-19 18:52 33.891239 -116.528105 131 1724ft 111kts
27-Nov-19 18:53 33.869251 -116.498971 137 1490ft 110kts
27-Nov-19 18:55 33.839848 -116.475999 144 1497ft 105kts
27-Nov-19 18:55 33.819353 -116.461956 142 1374ft 107kts
27-Nov-19 18:56 33.803579 -116.477542 261 878ft 69kts
27-Nov-19 18:57 33.815782 -116.492481 322 668ft 65kts
27-Nov-19 18:58 33.827309 -116.502676 325 481ft 21kts
27-Nov-19 18:59 33.829386 -116.503553 143 481ft 15kts
27-Nov-19 19:00 33.826342 -116.500850 143 481ft 15kts
27-Nov-19 19:01 33.823051 -116.497491 89 481ft 11kts
27-Nov-19 19:02 33.823137 -116.497408 288 481ft 0kts

Navigation Log

Ident Type
Flight plan parsing failed, navigation log unavailable